Time;durP1;ratioP1;P1;durP2;ratioP2;P2;SDS_P1;SDS_P2;PMS_P1;PMS_P2;Temp;Humidity;BMP_temperature;BMP_pressure;BME280_temperature;BME280_humidity;BME280_pressure;Samples;Min_cycle;Max_cycle;Signal;HPM_P1;HPM_P2
2020/12/10 00:00:20;;;;;;;78.60;28.43;;;2.40;99.90;;;;;;4983840;28;20054;-70
2020/12/10 00:02:47;;;;;;;75.67;27.37;;;2.40;99.90;;;;;;4985486;28;20050;-70
2020/12/10 00:05:14;;;;;;;78.00;27.07;;;2.40;99.90;;;;;;4989166;28;20525;-70
2020/12/10 00:07:41;;;;;;;81.87;27.87;;;2.40;99.90;;;;;;4987491;28;20061;-70
2020/12/10 00:10:09;;;;;;;72.83;27.47;;;2.30;99.90;;;;;;4992958;28;20491;-71
2020/12/10 00:12:39;;;;;;;72.73;27.37;;;2.30;99.90;;;;;;4991732;28;20085;-71
2020/12/10 00:15:06;;;;;;;67.67;25.90;;;2.30;99.90;;;;;;4992861;28;20046;-70
2020/12/10 00:17:32;;;;;;;75.40;27.13;;;2.30;99.90;;;;;;4991825;28;20053;-70
2020/12/10 00:20:00;;;;;;;74.47;25.43;;;2.30;99.90;;;;;;4992331;28;20050;-70
2020/12/10 00:22:27;;;;;;;74.70;26.67;;;2.30;99.90;;;;;;4992631;28;20046;-71
2020/12/10 00:24:54;;;;;;;71.23;26.43;;;2.30;99.90;;;;;;4991434;28;20073;-70
2020/12/10 00:27:24;;;;;;;64.27;26.50;;;2.40;99.90;;;;;;4992106;28;20061;-71
2020/12/10 00:29:51;;;;;;;65.13;24.27;;;2.40;99.90;;;;;;4991539;28;20051;-70
2020/12/10 00:32:18;;;;;;;60.57;24.30;;;2.40;99.90;;;;;;4991888;28;20069;-70
2020/12/10 00:34:47;;;;;;;57.63;22.03;;;2.40;99.90;;;;;;4977339;28;20046;-70
2020/12/10 00:37:17;;;;;;;60.93;22.30;;;2.40;99.90;;;;;;4990797;28;20060;-70
2020/12/10 00:39:44;;;;;;;59.60;23.67;;;2.60;99.90;;;;;;4992271;28;20054;-70
2020/12/10 00:42:11;;;;;;;69.63;25.57;;;2.40;99.90;;;;;;4991590;28;20069;-70
2020/12/10 00:44:38;;;;;;;61.13;23.07;;;2.40;99.90;;;;;;4991664;28;20050;-70
2020/12/10 00:47:04;;;;;;;66.47;22.37;;;2.30;99.90;;;;;;4991235;28;20054;-70
2020/12/10 00:49:31;;;;;;;56.77;23.00;;;2.30;99.90;;;;;;4991388;28;20435;-70
2020/12/10 00:51:58;;;;;;;58.10;23.50;;;2.30;99.90;;;;;;4990742;28;20411;-70
2020/12/10 00:54:25;;;;;;;65.43;25.07;;;2.30;99.90;;;;;;4991971;28;20434;-70
2020/12/10 00:56:52;;;;;;;57.43;22.07;;;2.30;99.90;;;;;;4991188;28;20503;-70
2020/12/10 00:59:19;;;;;;;62.70;23.83;;;2.30;99.90;;;;;;4990970;28;20054;-70
2020/12/10 01:01:45;;;;;;;54.87;22.43;;;2.30;99.90;;;;;;4990458;28;20564;-70
2020/12/10 01:04:13;;;;;;;54.23;22.27;;;2.40;99.90;;;;;;4990204;28;20068;-70
2020/12/10 01:06:40;;;;;;;53.63;21.60;;;2.30;99.90;;;;;;4992051;28;20046;-70
2020/12/10 01:09:08;;;;;;;51.70;19.43;;;2.40;99.90;;;;;;4990473;28;20405;-70
2020/12/10 01:11:36;;;;;;;47.17;20.23;;;2.50;99.90;;;;;;4990694;28;20162;-70
2020/12/10 01:14:05;;;;;;;50.67;19.70;;;2.50;99.90;;;;;;4991841;28;20423;-70
2020/12/10 01:16:32;;;;;;;47.83;19.30;;;2.40;99.90;;;;;;4989784;28;20065;-70
2020/12/10 01:18:58;;;;;;;46.50;18.93;;;2.50;99.90;;;;;;4991778;28;20050;-71
2020/12/10 01:21:30;;;;;;;47.77;18.13;;;2.50;99.90;;;;;;4990769;28;20050;-70
2020/12/10 01:23:57;;;;;;;41.77;16.70;;;2.50;99.90;;;;;;4991674;28;20054;-71
2020/12/10 01:26:25;;;;;;;50.47;18.17;;;2.50;99.90;;;;;;4990353;28;20054;-71
2020/12/10 01:28:53;;;;;;;44.07;16.83;;;2.50;99.90;;;;;;4991301;28;20054;-71
2020/12/10 01:31:19;;;;;;;39.67;16.03;;;2.50;99.90;;;;;;4990879;28;20050;-70
2020/12/10 01:33:46;;;;;;;42.77;16.30;;;2.40;99.90;;;;;;4993758;28;20058;-70
2020/12/10 01:36:22;;;;;;;49.33;18.23;;;2.40;99.90;;;;;;4992968;28;20050;-70
2020/12/10 01:38:50;;;;;;;46.40;18.02;;;2.30;99.90;;;;;;4989172;28;20050;-71
2020/12/10 01:41:17;;;;;;;42.80;16.30;;;2.40;99.90;;;;;;4991100;28;20574;-70
2020/12/10 01:43:44;;;;;;;40.20;15.80;;;2.50;99.90;;;;;;4990370;28;20050;-70
2020/12/10 01:46:12;;;;;;;49.87;17.63;;;2.40;99.90;;;;;;4990915;28;20057;-70
2020/12/10 01:48:39;;;;;;;47.73;16.60;;;2.50;99.90;;;;;;4990427;28;20058;-71
2020/12/10 01:51:07;;;;;;;41.20;16.50;;;2.40;99.90;;;;;;4989814;28;20053;-70
2020/12/10 01:53:33;;;;;;;42.27;16.23;;;2.40;99.90;;;;;;4991152;28;20132;-71
2020/12/10 01:56:00;;;;;;;38.07;16.27;;;2.50;99.90;;;;;;4986787;28;20105;-70
2020/12/10 01:58:27;;;;;;;42.70;16.73;;;2.40;99.90;;;;;;4988905;28;20427;-70
2020/12/10 02:00:53;;;;;;;44.57;17.07;;;2.40;99.90;;;;;;4987182;28;20092;-70
2020/12/10 02:03:21;;;;;;;40.17;15.73;;;2.40;99.90;;;;;;4988806;28;20526;-70
2020/12/10 02:05:48;;;;;;;37.77;15.27;;;2.40;99.90;;;;;;4990356;28;20080;-71
2020/12/10 02:08:14;;;;;;;38.80;15.67;;;2.50;99.90;;;;;;4983102;28;21055;-71
2020/12/10 02:10:41;;;;;;;38.37;16.17;;;2.50;99.90;;;;;;4985213;28;20053;-71
2020/12/10 02:13:08;;;;;;;40.77;15.17;;;2.40;99.90;;;;;;4983332;28;20451;-71
2020/12/10 02:15:35;;;;;;;42.47;15.47;;;2.40;99.90;;;;;;4985936;28;20459;-71
2020/12/10 02:18:04;;;;;;;41.70;15.57;;;2.40;99.90;;;;;;4990045;28;20161;-71
2020/12/10 02:20:32;;;;;;;42.30;15.33;;;2.50;99.90;;;;;;4990544;28;20049;-70
2020/12/10 02:23:01;;;;;;;47.83;16.47;;;2.30;99.90;;;;;;4992378;28;20514;-71
2020/12/10 02:25:30;;;;;;;47.67;17.20;;;2.30;99.90;;;;;;4994463;28;20050;-70
2020/12/10 02:27:59;;;;;;;48.70;16.90;;;2.40;99.90;;;;;;4994625;28;20054;-70
2020/12/10 02:30:25;;;;;;;51.47;18.23;;;2.50;99.90;;;;;;4993566;28;20234;-70
2020/12/10 02:32:59;;;;;;;59.33;18.10;;;2.40;99.90;;;;;;4994565;28;20459;-70
2020/12/10 02:35:27;;;;;;;54.30;17.17;;;2.30;99.90;;;;;;4993981;28;20046;-71
2020/12/10 02:37:57;;;;;;;60.67;17.20;;;2.30;99.90;;;;;;4994461;28;20046;-71
2020/12/10 02:40:26;;;;;;;67.00;20.43;;;2.40;99.90;;;;;;4993273;28;20049;-70
2020/12/10 02:42:53;;;;;;;72.97;20.47;;;2.40;99.90;;;;;;4994486;28;20046;-70
2020/12/10 02:45:20;;;;;;;83.73;21.67;;;2.30;99.90;;;;;;4993791;28;20056;-70
2020/12/10 02:47:47;;;;;;;71.00;21.33;;;2.30;99.90;;;;;;4993758;28;20054;-70
2020/12/10 02:50:14;;;;;;;86.97;23.67;;;2.20;99.90;;;;;;4993655;28;20458;-70
2020/12/10 02:52:40;;;;;;;91.37;22.90;;;2.30;99.90;;;;;;4993696;28;20050;-70
2020/12/10 02:55:08;;;;;;;79.23;21.43;;;2.20;99.90;;;;;;4994888;28;20050;-70
2020/12/10 02:57:36;;;;;;;80.20;21.20;;;2.30;99.90;;;;;;4993844;28;20198;-70
2020/12/10 03:00:03;;;;;;;84.63;22.17;;;2.30;99.90;;;;;;4994630;28;20046;-70
2020/12/10 03:02:30;;;;;;;73.27;20.33;;;2.20;99.90;;;;;;4993801;28;20046;-70
2020/12/10 03:04:56;;;;;;;83.37;21.60;;;2.20;99.90;;;;;;4991822;28;20073;-70
2020/12/10 03:07:23;;;;;;;73.23;20.73;;;2.10;99.90;;;;;;4994205;28;20522;-70
2020/12/10 03:09:49;;;;;;;71.30;19.27;;;2.20;99.90;;;;;;4993859;28;20051;-70
2020/12/10 03:12:16;;;;;;;70.73;20.83;;;2.40;99.90;;;;;;4991622;28;20406;-70
2020/12/10 03:14:44;;;;;;;81.67;19.60;;;2.40;99.90;;;;;;4994321;28;20042;-70
2020/12/10 03:17:10;;;;;;;81.20;22.57;;;2.40;99.90;;;;;;4994185;28;20525;-70
2020/12/10 03:19:37;;;;;;;102.47;21.73;;;2.30;99.90;;;;;;4991812;28;20049;-70
2020/12/10 03:22:04;;;;;;;89.00;22.47;;;2.20;99.90;;;;;;4994532;28;20061;-69
2020/12/10 03:24:31;;;;;;;88.80;22.70;;;2.20;99.90;;;;;;4992837;28;20065;-70
2020/12/10 03:26:58;;;;;;;95.20;23.60;;;2.20;99.90;;;;;;4993661;28;20054;-70
2020/12/10 03:29:24;;;;;;;103.67;25.30;;;2.10;99.90;;;;;;4994880;28;20054;-70
2020/12/10 03:31:52;;;;;;;116.30;25.90;;;2.20;99.90;;;;;;4993935;28;20050;-70
2020/12/10 03:34:21;;;;;;;113.80;25.17;;;2.20;99.90;;;;;;4994410;28;20046;-70
2020/12/10 03:36:51;;;;;;;116.53;25.53;;;2.20;99.90;;;;;;4992461;28;20076;-70
2020/12/10 03:39:18;;;;;;;119.57;25.83;;;2.20;99.90;;;;;;4988041;28;20511;-69
2020/12/10 03:41:46;;;;;;;135.73;28.27;;;2.10;99.90;;;;;;4992231;28;20050;-70
2020/12/10 03:44:12;;;;;;;122.77;27.30;;;2.20;99.90;;;;;;4993454;28;20072;-70
2020/12/10 03:46:40;;;;;;;114.40;24.23;;;2.10;99.90;;;;;;4992163;28;20050;-69
2020/12/10 03:49:08;;;;;;;122.63;26.17;;;2.10;99.90;;;;;;4993164;28;20077;-70
2020/12/10 03:51:35;;;;;;;99.03;23.37;;;2.00;99.90;;;;;;4992898;28;20446;-70
2020/12/10 03:54:03;;;;;;;132.87;26.50;;;2.10;99.90;;;;;;4992152;28;20507;-70
2020/12/10 03:56:31;;;;;;;127.03;26.67;;;2.20;99.90;;;;;;4992863;28;20062;-70
2020/12/10 03:58:57;;;;;;;131.33;27.67;;;2.20;99.90;;;;;;4989580;28;20054;-70
2020/12/10 04:01:24;;;;;;;141.20;29.43;;;2.10;99.90;;;;;;4992892;28;20053;-70
2020/12/10 04:03:51;;;;;;;123.53;26.43;;;2.10;99.90;;;;;;4991701;28;20050;-70
2020/12/10 04:06:18;;;;;;;126.83;26.50;;;2.10;99.90;;;;;;4990326;28;20046;-70
2020/12/10 04:08:45;;;;;;;112.27;24.90;;;2.20;99.90;;;;;;4991796;28;20057;-70
2020/12/10 04:11:12;;;;;;;117.37;23.97;;;2.20;99.90;;;;;;4992169;28;20073;-70
2020/12/10 04:13:39;;;;;;;121.30;25.57;;;2.20;99.90;;;;;;4992285;28;20054;-70
2020/12/10 04:16:06;;;;;;;127.43;27.50;;;2.20;99.90;;;;;;4992065;28;20058;-70
2020/12/10 04:18:36;;;;;;;117.77;26.20;;;2.10;99.90;;;;;;4992529;28;20062;-70
2020/12/10 04:21:03;;;;;;;139.83;27.97;;;2.20;99.90;;;;;;4991441;28;20047;-70
2020/12/10 04:23:34;;;;;;;131.23;28.57;;;2.30;99.90;;;;;;4992455;28;20058;-71
2020/12/10 04:26:01;;;;;;;140.77;30.77;;;2.20;99.90;;;;;;4989302;28;20073;-70
2020/12/10 04:28:27;;;;;;;143.97;28.10;;;2.30;99.90;;;;;;4992210;28;20050;-70
2020/12/10 04:30:54;;;;;;;127.97;26.40;;;2.30;99.90;;;;;;4991279;28;20050;-70
2020/12/10 04:33:21;;;;;;;142.03;28.17;;;2.20;99.90;;;;;;4992258;28;20042;-70
2020/12/10 04:35:48;;;;;;;131.87;27.23;;;2.20;99.90;;;;;;4992072;28;20050;-70
2020/12/10 04:38:15;;;;;;;151.97;30.87;;;2.20;99.90;;;;;;4991464;28;20565;-70
2020/12/10 04:40:42;;;;;;;137.73;28.07;;;2.20;99.90;;;;;;4992092;28;20050;-70
2020/12/10 04:43:11;;;;;;;154.67;27.80;;;2.30;99.90;;;;;;4991605;28;20062;-70
2020/12/10 04:45:37;;;;;;;137.77;30.60;;;2.30;99.90;;;;;;4991724;28;20058;-70
2020/12/10 04:48:05;;;;;;;140.50;29.87;;;2.30;99.90;;;;;;4991574;28;20058;-70
2020/12/10 04:50:38;;;;;;;132.33;27.67;;;2.30;99.90;;;;;;4991659;28;20554;-69
2020/12/10 04:53:05;;;;;;;129.80;28.30;;;2.40;99.90;;;;;;4991665;28;20128;-70
2020/12/10 04:55:32;;;;;;;142.40;30.87;;;2.20;99.90;;;;;;4991739;28;20050;-68
2020/12/10 04:58:00;;;;;;;115.13;28.27;;;2.30;99.90;;;;;;4992397;28;20496;-68
2020/12/10 05:00:28;;;;;;;111.00;25.50;;;2.30;99.90;;;;;;4990893;28;20046;-67
2020/12/10 05:02:55;;;;;;;116.40;27.23;;;2.50;99.90;;;;;;4992203;28;20577;-67
2020/12/10 05:05:23;;;;;;;136.77;29.90;;;2.40;99.90;;;;;;4991067;28;20053;-67
2020/12/10 05:07:49;;;;;;;137.00;32.13;;;2.30;99.90;;;;;;4992167;28;20529;-68
2020/12/10 05:10:17;;;;;;;109.50;27.27;;;2.30;99.90;;;;;;4991067;28;20050;-68
2020/12/10 05:12:44;;;;;;;116.90;28.50;;;2.50;99.90;;;;;;4992281;28;20078;-68
2020/12/10 05:15:12;;;;;;;105.67;28.77;;;2.50;99.90;;;;;;4991793;28;20050;-68
2020/12/10 05:17:39;;;;;;;116.23;29.87;;;2.40;99.90;;;;;;4991687;28;20055;-70
2020/12/10 05:20:06;;;;;;;105.23;29.13;;;2.50;99.90;;;;;;4991423;28;20618;-68
2020/12/10 05:22:33;;;;;;;114.73;28.10;;;2.50;99.90;;;;;;4990758;28;20055;-68
2020/12/10 05:25:02;;;;;;;111.93;28.03;;;2.50;99.90;;;;;;4991838;28;20054;-68
2020/12/10 05:27:29;;;;;;;114.67;28.10;;;2.50;99.90;;;;;;4991071;28;20066;-68
2020/12/10 05:29:57;;;;;;;103.53;26.90;;;2.50;99.90;;;;;;4991651;28;20388;-68
2020/12/10 05:32:38;;;;;;;127.03;28.33;;;2.50;99.90;;;;;;4989903;28;20050;-67
2020/12/10 05:35:21;;;;;;;121.77;28.43;;;2.40;99.90;;;;;;4990516;28;20058;-70
2020/12/10 05:37:49;;;;;;;123.00;29.73;;;2.50;99.90;;;;;;4988414;28;20581;-70
2020/12/10 05:40:16;;;;;;;110.90;27.33;;;2.50;99.90;;;;;;4989442;28;20054;-70
2020/12/10 05:42:43;;;;;;;115.93;29.43;;;2.50;99.90;;;;;;4990532;28;20050;-70
2020/12/10 05:45:13;;;;;;;116.37;29.13;;;2.40;99.90;;;;;;4989424;28;20105;-70
2020/12/10 05:47:43;;;;;;;115.47;30.37;;;2.40;99.90;;;;;;4990525;28;20085;-70
2020/12/10 05:50:11;;;;;;;128.03;29.40;;;2.40;99.90;;;;;;4988468;28;20101;-70
2020/12/10 05:52:50;;;;;;;121.07;28.37;;;2.30;99.90;;;;;;4990962;28;20050;-70
2020/12/10 05:55:18;;;;;;;130.17;30.50;;;2.40;99.90;;;;;;4988940;28;20047;-70
2020/12/10 05:57:46;;;;;;;137.33;33.10;;;2.40;99.90;;;;;;4990025;28;20061;-70
2020/12/10 06:00:13;;;;;;;125.57;30.90;;;2.50;99.90;;;;;;4989447;28;20046;-70
2020/12/10 06:02:41;;;;;;;122.47;29.90;;;2.50;99.90;;;;;;4989816;28;20057;-70
2020/12/10 06:05:09;;;;;;;111.50;29.10;;;2.60;99.90;;;;;;4990094;28;20050;-70
2020/12/10 06:07:36;;;;;;;110.03;29.07;;;2.60;99.90;;;;;;4988822;28;20545;-70
2020/12/10 06:10:03;;;;;;;113.20;28.93;;;2.60;99.90;;;;;;4990045;28;20451;-70
2020/12/10 06:12:29;;;;;;;120.07;28.90;;;2.60;99.90;;;;;;4988555;28;20050;-70
2020/12/10 06:14:59;;;;;;;105.60;28.10;;;2.60;99.90;;;;;;4990230;28;20051;-70
2020/12/10 06:17:26;;;;;;;113.93;28.70;;;2.60;99.90;;;;;;4989423;28;20086;-70
2020/12/10 06:19:56;;;;;;;99.40;26.37;;;2.60;99.90;;;;;;4989329;28;20570;-70
2020/12/10 06:22:27;;;;;;;110.97;27.23;;;2.60;99.90;;;;;;4993798;28;20514;-70
2020/12/10 06:25:13;;;;;;;104.53;27.73;;;2.70;99.90;;;;;;4993072;28;20084;-71
2020/12/10 06:27:40;;;;;;;103.00;26.93;;;2.70;99.90;;;;;;4991035;28;20462;-71
2020/12/10 06:30:27;;;;;;;110.60;28.30;;;2.60;99.90;;;;;;4988633;28;20504;-72
2020/12/10 06:32:54;;;;;;;99.07;26.63;;;2.60;99.90;;;;;;4989896;28;20419;-72
2020/12/10 06:35:33;;;;;;;95.73;26.83;;;2.60;99.90;;;;;;4988837;28;20050;-71
2020/12/10 06:38:00;;;;;;;94.10;25.67;;;2.60;99.90;;;;;;4989978;28;20054;-71
2020/12/10 06:40:35;;;;;;;95.50;26.87;;;2.60;99.90;;;;;;4988633;28;20100;-71
2020/12/10 06:43:07;;;;;;;92.53;27.70;;;2.70;99.90;;;;;;4990741;28;20050;-71
2020/12/10 06:45:35;;;;;;;90.10;26.93;;;2.70;99.90;;;;;;4991452;28;20046;-72
2020/12/10 06:48:04;;;;;;;100.73;27.10;;;2.70;99.90;;;;;;4990644;28;20049;-71
2020/12/10 06:50:33;;;;;;;89.30;26.63;;;2.70;99.90;;;;;;4990151;28;20050;-71
2020/12/10 06:53:18;;;;;;;94.63;27.60;;;2.70;99.90;;;;;;4989899;28;20054;-71
2020/12/10 06:56:02;;;;;;;94.73;29.13;;;2.70;99.90;;;;;;4990645;28;20070;-71
2020/12/10 06:58:49;;;;;;;78.80;25.17;;;2.70;99.90;;;;;;4989879;28;20050;-70
2020/12/10 07:01:35;;;;;;;88.03;26.23;;;2.60;99.90;;;;;;4991166;28;20093;-71
2020/12/10 07:04:19;;;;;;;90.00;26.63;;;2.60;99.90;;;;;;4989782;28;20066;-72
2020/12/10 07:06:47;;;;;;;83.13;26.77;;;2.60;99.90;;;;;;4990877;28;20058;-71
2020/12/10 07:09:14;;;;;;;85.93;26.03;;;2.60;99.90;;;;;;4992180;28;20057;-71
2020/12/10 07:11:43;;;;;;;83.27;26.10;;;2.60;99.90;;;;;;4994272;28;20061;-71
2020/12/10 07:14:28;;;;;;;91.70;27.83;;;2.60;99.90;;;;;;4993568;28;20051;-70
2020/12/10 07:16:56;;;;;;;89.43;26.27;;;2.60;99.90;;;;;;4993882;28;20058;-71
2020/12/10 07:19:23;;;;;;;92.40;27.67;;;2.60;99.90;;;;;;4993795;28;20058;-71
2020/12/10 07:21:50;;;;;;;85.63;26.50;;;2.60;99.90;;;;;;4988614;28;20061;-71
2020/12/10 07:24:17;;;;;;;92.90;26.83;;;2.70;99.90;;;;;;4990815;28;20042;-70
2020/12/10 07:26:44;;;;;;;104.20;28.47;;;2.70;99.90;;;;;;4991933;28;20059;-70
2020/12/10 07:29:12;;;;;;;91.37;27.13;;;2.70;99.90;;;;;;4992835;28;20047;-70
2020/12/10 07:31:42;;;;;;;91.13;28.63;;;2.70;99.90;;;;;;4991593;28;20073;-70
2020/12/10 07:34:11;;;;;;;100.73;29.47;;;2.70;99.90;;;;;;4993379;28;20086;-71
2020/12/10 07:36:46;;;;;;;96.27;28.20;;;2.70;99.90;;;;;;4991844;28;20069;-70
2020/12/10 07:39:16;;;;;;;99.73;26.97;;;2.70;99.90;;;;;;4993089;28;20046;-70
2020/12/10 07:41:43;;;;;;;97.63;30.53;;;2.70;99.90;;;;;;4992548;28;20085;-70
2020/12/10 07:44:09;;;;;;;101.40;29.93;;;2.70;99.90;;;;;;4992595;28;20086;-70
2020/12/10 07:46:37;;;;;;;100.63;29.23;;;2.70;99.90;;;;;;4992955;28;20054;-70
2020/12/10 07:49:04;;;;;;;122.47;31.20;;;2.70;99.90;;;;;;4991847;28;20058;-70
2020/12/10 07:51:31;;;;;;;97.87;29.33;;;2.70;99.90;;;;;;4992627;28;20061;-71
2020/12/10 07:54:02;;;;;;;96.63;30.40;;;2.70;99.90;;;;;;4992018;28;20721;-70
2020/12/10 07:56:35;;;;;;;113.63;30.07;;;2.70;99.90;;;;;;4992682;28;20054;-70
2020/12/10 07:59:03;;;;;;;113.30;29.53;;;2.80;99.90;;;;;;4991928;28;20519;-71
2020/12/10 08:01:38;;;;;;;116.53;31.10;;;2.80;99.90;;;;;;4991961;28;20057;-70
2020/12/10 08:04:15;;;;;;;109.37;30.30;;;2.80;99.90;;;;;;4991773;28;20054;-70
2020/12/10 08:06:43;;;;;;;107.35;30.88;;;2.80;99.90;;;;;;4992398;28;20514;-70
2020/12/10 08:09:10;;;;;;;108.50;29.37;;;2.80;99.90;;;;;;4991709;28;20058;-70
2020/12/10 08:11:49;;;;;;;100.97;30.63;;;2.80;99.90;;;;;;4991791;28;20063;-70
2020/12/10 08:14:24;;;;;;;109.50;29.90;;;2.80;99.90;;;;;;4992337;28;20519;-71
2020/12/10 08:16:51;;;;;;;113.00;30.50;;;2.80;99.90;;;;;;4991646;28;20101;-70
2020/12/10 08:19:19;;;;;;;109.40;29.37;;;2.80;99.90;;;;;;4990932;28;20515;-70
2020/12/10 08:21:47;;;;;;;112.70;30.97;;;2.90;99.90;;;;;;4990070;28;20104;-70
2020/12/10 08:24:14;;;;;;;109.97;29.13;;;2.80;99.90;;;;;;4990827;28;20050;-72
2020/12/10 08:26:41;;;;;;;106.33;30.00;;;2.90;99.90;;;;;;4990986;28;20165;-70
2020/12/10 08:29:14;;;;;;;95.97;32.53;;;2.80;99.90;;;;;;4992190;28;20046;-70
2020/12/10 08:31:44;;;;;;;85.90;29.03;;;2.80;99.90;;;;;;4986649;28;20128;-70
2020/12/10 08:34:17;;;;;;;83.03;28.17;;;2.90;99.90;;;;;;4987480;28;20042;-70
2020/12/10 08:36:44;;;;;;;81.10;27.60;;;2.90;99.90;;;;;;4991459;28;20138;-70
2020/12/10 08:39:11;;;;;;;85.40;27.40;;;2.90;99.90;;;;;;4990712;28;20518;-70
2020/12/10 08:41:38;;;;;;;93.20;29.03;;;2.90;99.90;;;;;;4991390;28;20046;-70
2020/12/10 08:44:06;;;;;;;81.10;26.80;;;2.80;99.90;;;;;;4990298;28;20050;-70
2020/12/10 08:46:35;;;;;;;80.73;26.03;;;2.70;99.90;;;;;;4990365;28;20503;-70
2020/12/10 08:49:15;;;;;;;94.93;29.07;;;2.80;99.90;;;;;;4990760;28;20050;-70
2020/12/10 08:51:43;;;;;;;94.57;29.20;;;2.80;99.90;;;;;;4988504;28;20415;-70
2020/12/10 08:54:10;;;;;;;96.77;29.40;;;2.80;99.90;;;;;;4988174;28;20077;-70
2020/12/10 08:56:40;;;;;;;93.67;30.27;;;2.80;99.90;;;;;;4990374;28;20130;-70
2020/12/10 08:59:07;;;;;;;96.33;31.23;;;2.90;99.90;;;;;;4989486;28;20133;-70
2020/12/10 09:01:35;;;;;;;97.47;30.83;;;2.90;99.90;;;;;;4990589;28;20418;-70
2020/12/10 09:04:02;;;;;;;95.40;29.50;;;2.90;99.90;;;;;;4990823;28;20412;-70
2020/12/10 09:06:33;;;;;;;96.80;29.60;;;3.00;99.90;;;;;;4989405;28;20046;-70
2020/12/10 09:09:00;;;;;;;103.10;32.07;;;3.00;99.90;;;;;;4990500;28;20078;-70
2020/12/10 09:11:26;;;;;;;108.70;31.67;;;3.00;99.90;;;;;;4989011;28;20400;-70
2020/12/10 09:13:53;;;;;;;103.33;30.00;;;3.00;99.90;;;;;;4990669;28;20413;-70
2020/12/10 09:16:22;;;;;;;113.23;31.63;;;3.10;99.90;;;;;;4989425;28;20101;-70
2020/12/10 09:18:53;;;;;;;106.87;31.50;;;3.00;99.90;;;;;;4987889;28;20082;-70
2020/12/10 09:21:20;;;;;;;108.27;30.87;;;3.00;99.90;;;;;;4987292;28;20104;-70
2020/12/10 09:23:47;;;;;;;100.00;31.47;;;3.10;99.90;;;;;;4990971;28;20521;-70
2020/12/10 09:26:15;;;;;;;114.33;32.93;;;3.10;99.90;;;;;;4992523;28;20050;-70
2020/12/10 09:28:41;;;;;;;97.63;32.57;;;3.10;99.90;;;;;;4988779;28;20050;-70
2020/12/10 09:31:08;;;;;;;115.53;32.70;;;3.10;99.90;;;;;;4987502;28;20691;-70
2020/12/10 09:33:35;;;;;;;110.47;34.53;;;3.10;99.90;;;;;;4983788;28;20508;-70
2020/12/10 09:36:03;;;;;;;122.17;33.83;;;3.10;99.90;;;;;;4988461;28;20046;-70
2020/12/10 09:38:39;;;;;;;123.57;32.97;;;3.10;99.90;;;;;;4986649;28;20479;-70
2020/12/10 09:41:06;;;;;;;118.35;31.27;;;3.10;99.90;;;;;;4984530;28;20100;-70
2020/12/10 09:43:39;;;;;;;118.30;34.50;;;3.00;99.90;;;;;;4986984;28;20047;-70
2020/12/10 09:46:11;;;;;;;98.37;31.77;;;3.10;99.90;;;;;;4984977;28;20058;-70
2020/12/10 09:48:39;;;;;;;103.20;30.93;;;3.10;99.90;;;;;;4986157;28;20050;-70
2020/12/10 09:51:08;;;;;;;110.53;31.40;;;3.10;99.90;;;;;;4990493;28;20558;-70
2020/12/10 09:53:39;;;;;;;106.67;31.70;;;3.10;99.90;;;;;;4990290;28;20046;-70
2020/12/10 09:58:50;;;;;;;98.63;28.57;;;3.20;99.90;;;;;;4988984;28;20133;-70
2020/12/10 10:01:17;;;;;;;105.20;29.53;;;3.20;99.90;;;;;;4988761;28;20050;-70
2020/12/10 10:03:43;;;;;;;124.27;32.47;;;3.20;99.90;;;;;;4990818;28;20551;-70
2020/12/10 10:06:20;;;;;;;112.60;29.23;;;3.20;99.90;;;;;;4990175;28;20058;-70
2020/12/10 10:08:47;;;;;;;;;;;3.20;99.90;;;;;;4991243;28;20046;-70
2020/12/10 10:11:15;;;;;;;110.10;29.73;;;3.20;99.90;;;;;;4988231;28;20017;-70
2020/12/10 10:13:41;;;;;;;109.60;32.50;;;3.20;99.90;;;;;;4988902;28;20073;-70
2020/12/10 10:16:08;;;;;;;97.50;30.57;;;3.20;99.90;;;;;;4989673;28;20474;-71
2020/12/10 10:18:35;;;;;;;104.30;30.47;;;3.20;99.90;;;;;;4990492;28;20050;-70
2020/12/10 10:21:02;;;;;;;102.00;30.60;;;3.20;99.90;;;;;;4989020;28;20054;-70
2020/12/10 10:23:29;;;;;;;98.93;30.10;;;3.20;99.90;;;;;;4990352;28;20057;-70
2020/12/10 10:25:56;;;;;;;94.30;29.17;;;3.20;99.90;;;;;;4988527;28;20481;-70
2020/12/10 10:28:23;;;;;;;76.07;25.73;;;3.10;99.90;;;;;;4989418;28;20528;-70
2020/12/10 10:30:49;;;;;;;85.60;28.70;;;3.20;99.90;;;;;;4989560;28;20050;-70
2020/12/10 10:33:23;;;;;;;77.63;26.17;;;3.20;99.90;;;;;;4987103;28;20503;-71
2020/12/10 10:35:53;;;;;;;82.33;25.93;;;3.30;99.90;;;;;;4989968;28;20109;-70
2020/12/10 10:38:20;;;;;;;76.83;25.97;;;3.40;99.90;;;;;;4988017;28;20051;-70
2020/12/10 10:40:47;;;;;;;83.60;26.37;;;3.40;99.90;;;;;;4983978;28;20047;-70
2020/12/10 10:43:14;;;;;;;80.50;25.73;;;3.50;99.90;;;;;;4987680;28;20050;-70
2020/12/10 10:45:47;;;;;;;83.53;24.87;;;3.40;99.90;;;;;;4990996;28;20414;-70
2020/12/10 10:48:13;;;;;;;70.57;23.57;;;3.30;99.90;;;;;;4990404;28;20050;-70
2020/12/10 10:50:40;;;;;;;82.00;26.57;;;3.30;99.90;;;;;;4991056;28;20057;-70
2020/12/10 10:53:07;;;;;;;84.30;25.33;;;3.20;99.90;;;;;;4990410;28;20065;-70
2020/12/10 10:55:33;;;;;;;82.70;24.70;;;3.20;99.90;;;;;;4989379;28;20629;-70
2020/12/10 10:58:01;;;;;;;90.63;25.13;;;3.30;99.90;;;;;;4993858;28;20049;-71
2020/12/10 11:00:28;;;;;;;95.33;26.23;;;3.30;99.90;;;;;;4992061;28;20057;-70
2020/12/10 11:02:54;;;;;;;89.70;28.50;;;3.40;99.90;;;;;;4993617;28;20109;-70
2020/12/10 11:05:21;;;;;;;88.30;26.87;;;3.30;99.90;;;;;;4992851;28;20050;-70
2020/12/10 11:07:48;;;;;;;98.57;29.40;;;3.20;99.90;;;;;;4993479;28;20134;-72
2020/12/10 11:10:21;;;;;;;102.57;29.73;;;3.40;99.90;;;;;;4992027;28;20060;-70
2020/12/10 11:12:48;;;;;;;103.70;27.97;;;3.20;99.90;;;;;;4993631;28;20054;-70
2020/12/10 11:15:16;;;;;;;100.07;29.73;;;3.30;99.90;;;;;;4989665;28;20113;-70
2020/12/10 11:17:42;;;;;;;101.90;29.23;;;3.30;99.90;;;;;;4991119;28;20046;-70
2020/12/10 11:20:09;;;;;;;99.57;28.80;;;3.30;99.90;;;;;;4994779;28;20043;-69
2020/12/10 11:22:38;;;;;;;113.43;30.93;;;3.30;99.90;;;;;;4995328;28;20427;-69
2020/12/10 11:25:05;;;;;;;97.50;27.07;;;3.10;99.90;;;;;;4993078;28;20419;-69
2020/12/10 11:27:32;;;;;;;105.50;28.57;;;3.10;99.90;;;;;;4992085;28;20050;-69
2020/12/10 11:29:59;;;;;;;101.93;28.40;;;3.20;99.90;;;;;;4993543;28;20046;-69
2020/12/10 11:32:27;;;;;;;110.33;28.73;;;3.20;99.90;;;;;;4990836;28;20046;-69
2020/12/10 11:34:53;;;;;;;90.10;28.47;;;3.30;99.90;;;;;;4993017;28;20047;-69
2020/12/10 11:37:20;;;;;;;89.93;27.67;;;3.20;99.90;;;;;;4992089;28;20050;-69
2020/12/10 11:39:47;;;;;;;89.00;27.47;;;3.20;99.90;;;;;;4992124;28;20509;-69
2020/12/10 11:42:14;;;;;;;86.27;26.93;;;3.30;99.90;;;;;;4990380;28;20057;-69
2020/12/10 11:44:42;;;;;;;94.10;28.57;;;3.30;99.90;;;;;;4987895;28;20073;-69
2020/12/10 11:47:10;;;;;;;83.23;26.23;;;3.30;99.90;;;;;;4990327;28;20049;-69
2020/12/10 11:49:38;;;;;;;95.60;27.80;;;3.30;99.90;;;;;;4992436;28;20085;-69
2020/12/10 11:52:05;;;;;;;87.63;25.73;;;3.30;99.90;;;;;;4994973;28;20053;-69
2020/12/10 11:54:32;;;;;;;91.20;27.13;;;3.40;99.90;;;;;;5000612;28;20049;-69
2020/12/10 11:56:59;;;;;;;80.70;26.60;;;3.40;99.90;;;;;;4997288;28;20058;-69
2020/12/10 11:59:26;;;;;;;83.13;26.67;;;3.30;99.90;;;;;;4998144;28;20085;-69
2020/12/10 12:01:53;;;;;;;77.43;24.67;;;3.40;99.90;;;;;;4997520;28;20058;-69
2020/12/10 12:04:20;;;;;;;69.90;23.27;;;3.40;99.90;;;;;;4996431;28;20072;-69
2020/12/10 12:06:47;;;;;;;74.67;25.77;;;3.40;99.90;;;;;;4997196;28;20055;-69
2020/12/10 12:09:14;;;;;;;72.27;24.10;;;3.40;99.90;;;;;;4995632;28;20060;-69
2020/12/10 12:11:41;;;;;;;66.87;22.87;;;3.30;99.90;;;;;;4992225;28;20514;-69
2020/12/10 12:14:07;;;;;;;73.10;24.00;;;3.30;99.90;;;;;;4996124;28;20054;-69
2020/12/10 12:16:34;;;;;;;76.03;26.00;;;3.20;99.90;;;;;;4995083;28;20053;-69
2020/12/10 12:19:01;;;;;;;78.00;26.77;;;3.40;99.90;;;;;;4993384;28;20177;-69
2020/12/10 12:21:28;;;;;;;77.20;24.30;;;3.50;99.90;;;;;;4994638;28;20049;-69
2020/12/10 12:23:57;;;;;;;70.97;23.20;;;3.50;99.90;;;;;;4992238;28;20050;-69
2020/12/10 12:26:29;;;;;;;72.27;23.13;;;3.40;99.90;;;;;;4990411;28;20058;-69
2020/12/10 12:28:59;;;;;;;69.37;22.53;;;3.50;99.90;;;;;;4991122;28;20053;-69
2020/12/10 12:31:30;;;;;;;72.77;24.67;;;3.50;99.90;;;;;;4992238;28;20046;-69
2020/12/10 12:33:57;;;;;;;61.43;22.60;;;3.40;99.90;;;;;;4993210;28;20060;-69
2020/12/10 12:36:24;;;;;;;72.40;21.17;;;3.30;99.90;;;;;;4992621;28;20120;-69
2020/12/10 12:38:50;;;;;;;60.83;21.70;;;3.30;99.90;;;;;;4992670;28;20061;-69
2020/12/10 12:41:18;;;;;;;74.67;24.07;;;3.50;99.90;;;;;;4993617;28;20453;-69